createdAt,value
2018-05-29T00:00:16.894Z,0.00
2018-05-29T00:01:16.920Z,0.00
2018-05-29T00:02:16.947Z,0.00
2018-05-29T00:03:16.972Z,0.00
2018-05-29T00:04:16.999Z,0.00
2018-05-29T00:05:17.030Z,0.00
2018-05-29T00:06:17.052Z,0.00
2018-05-29T00:07:17.076Z,0.00
2018-05-29T00:08:17.102Z,0.00
2018-05-29T00:09:17.127Z,0.00
2018-05-29T00:10:17.156Z,0.00
2018-05-29T00:11:17.180Z,0.00
2018-05-29T00:12:17.206Z,0.00
2018-05-29T00:13:17.245Z,0.00
2018-05-29T00:14:17.258Z,0.00
2018-05-29T00:15:17.284Z,0.00
2018-05-29T00:16:17.310Z,0.00
2018-05-29T00:17:17.338Z,0.00
2018-05-29T00:18:17.361Z,0.00
2018-05-29T00:19:17.401Z,0.00
2018-05-29T00:20:17.414Z,0.00
2018-05-29T00:21:17.439Z,0.00
2018-05-29T00:22:17.466Z,0.00
2018-05-29T00:23:17.491Z,0.00
2018-05-29T00:24:17.517Z,0.00
2018-05-29T00:25:17.555Z,0.00
2018-05-29T00:26:17.574Z,0.00
2018-05-29T00:27:17.595Z,0.00
2018-05-29T00:28:17.621Z,0.00
2018-05-29T00:29:17.648Z,0.00
2018-05-29T00:30:17.672Z,0.00
2018-05-29T00:31:17.699Z,0.00
2018-05-29T00:32:17.725Z,0.00
2018-05-29T00:33:17.756Z,0.00
2018-05-29T00:34:17.766Z,0.00
2018-05-29T00:35:17.791Z,0.00
2018-05-29T00:36:17.817Z,0.00
2018-05-29T00:37:17.842Z,0.00
2018-05-29T00:38:17.869Z,0.00
2018-05-29T00:39:17.894Z,0.00
2018-05-29T00:40:17.921Z,0.00
2018-05-29T00:41:17.946Z,0.00
2018-05-29T00:42:17.972Z,0.00
2018-05-29T00:43:17.998Z,0.00
2018-05-29T00:44:18.024Z,0.00
2018-05-29T00:45:18.049Z,0.00
2018-05-29T00:46:18.076Z,0.00
2018-05-29T00:47:18.105Z,0.00
2018-05-29T00:48:18.127Z,0.00
2018-05-29T00:49:18.154Z,0.00
2018-05-29T00:50:18.181Z,0.00
2018-05-29T00:51:18.205Z,0.00
2018-05-29T00:52:18.236Z,0.00
2018-05-29T00:53:18.257Z,0.00
2018-05-29T00:54:18.277Z,0.00
2018-05-29T00:55:18.308Z,0.00
2018-05-29T00:56:18.323Z,0.00
2018-05-29T00:57:18.349Z,0.00
2018-05-29T00:58:18.375Z,0.00
2018-05-29T00:59:18.401Z,0.00
2018-05-29T01:00:18.427Z,0.00
2018-05-29T01:01:18.452Z,0.00
2018-05-29T01:02:18.477Z,0.00
2018-05-29T01:03:18.504Z,0.00
2018-05-29T01:04:18.530Z,0.00
2018-05-29T01:05:18.557Z,0.00
2018-05-29T01:06:18.581Z,0.00
2018-05-29T01:07:18.609Z,0.00
2018-05-29T01:08:18.633Z,0.00
2018-05-29T01:09:18.659Z,0.00
2018-05-29T01:10:18.699Z,0.00
2018-05-29T01:11:18.715Z,0.00
2018-05-29T01:12:18.726Z,0.00
2018-05-29T01:13:18.752Z,0.00
2018-05-29T01:14:18.777Z,0.00
2018-05-29T01:15:18.803Z,0.00
2018-05-29T01:16:18.829Z,0.00
2018-05-29T01:17:18.855Z,0.00
2018-05-29T01:18:18.883Z,0.00
2018-05-29T01:19:18.958Z,0.00
2018-05-29T01:20:18.938Z,0.00
2018-05-29T01:21:18.958Z,0.00
2018-05-29T01:22:18.988Z,0.00
2018-05-29T01:23:19.011Z,0.00
2018-05-29T01:24:19.036Z,0.00
2018-05-29T01:25:19.063Z,0.00
2018-05-29T01:26:19.088Z,0.00
2018-05-29T01:27:19.101Z,0.00
2018-05-29T01:28:19.128Z,0.00
2018-05-29T01:29:19.153Z,0.00
2018-05-29T01:30:19.193Z,0.00
2018-05-29T01:31:19.205Z,0.00
2018-05-29T01:32:19.244Z,0.00
2018-05-29T01:33:19.257Z,0.00
2018-05-29T01:34:19.283Z,0.00
2018-05-29T01:35:19.308Z,0.00
2018-05-29T01:36:19.336Z,0.00
2018-05-29T01:37:19.360Z,0.00
2018-05-29T01:38:19.375Z,0.00
2018-05-29T01:39:19.401Z,0.00
2018-05-29T01:40:19.438Z,0.00
2018-05-29T01:41:19.453Z,0.00
2018-05-29T01:42:19.479Z,0.00
2018-05-29T01:43:19.504Z,0.00
2018-05-29T01:44:19.531Z,0.00
2018-05-29T01:45:19.556Z,0.00
2018-05-29T01:46:19.582Z,0.00
2018-05-29T01:47:19.609Z,0.00
2018-05-29T01:48:19.623Z,0.00
2018-05-29T01:49:19.648Z,0.00
2018-05-29T01:50:19.674Z,0.00
2018-05-29T01:51:19.702Z,0.00
2018-05-29T01:52:19.725Z,0.00
2018-05-29T01:53:19.763Z,0.00
2018-05-29T01:54:19.777Z,0.00
2018-05-29T01:55:19.803Z,0.00
2018-05-29T01:56:19.829Z,0.00
2018-05-29T01:57:19.855Z,0.00
2018-05-29T01:58:19.870Z,0.00
2018-05-29T01:59:19.895Z,0.00
2018-05-29T02:00:19.922Z,0.00
2018-05-29T02:01:19.950Z,0.00
2018-05-29T02:02:19.973Z,0.00
2018-05-29T02:03:19.999Z,0.00
2018-05-29T02:04:20.090Z,0.00
2018-05-29T02:05:20.050Z,0.00
2018-05-29T02:06:20.077Z,0.00
2018-05-29T02:07:20.096Z,4.00
2018-05-29T02:08:20.115Z,4.00
2018-05-29T02:09:20.155Z,4.00
2018-05-29T02:10:20.167Z,4.00
2018-05-29T02:11:20.192Z,0.00
2018-05-29T02:12:20.218Z,0.00
2018-05-29T02:13:20.245Z,4.00
2018-05-29T02:14:20.270Z,4.00
2018-05-29T02:15:20.297Z,4.00
2018-05-29T02:16:20.311Z,4.00
2018-05-29T02:17:20.339Z,4.00
2018-05-29T02:18:20.365Z,8.00
2018-05-29T02:19:20.394Z,4.00
2018-05-29T02:20:20.418Z,8.00
2018-05-29T02:21:20.442Z,8.00
2018-05-29T02:22:20.466Z,8.00
2018-05-29T02:23:20.492Z,12.00
2018-05-29T02:24:20.505Z,12.00
2018-05-29T02:25:20.543Z,12.00
2018-05-29T02:26:20.557Z,12.00
2018-05-29T02:27:20.582Z,16.00
2018-05-29T02:28:20.608Z,20.00
2018-05-29T02:29:20.635Z,24.00
2018-05-29T02:30:20.663Z,24.00
2018-05-29T02:31:20.699Z,28.00
2018-05-29T02:32:20.701Z,32.00
2018-05-29T02:33:20.727Z,36.00
2018-05-29T02:34:20.753Z,40.00
2018-05-29T02:35:20.779Z,44.00
2018-05-29T02:36:20.809Z,52.00
2018-05-29T02:37:20.830Z,56.00
2018-05-29T02:38:20.857Z,64.00
2018-05-29T02:39:20.870Z,68.00
2018-05-29T02:40:20.895Z,76.00
2018-05-29T02:41:20.922Z,84.00
2018-05-29T02:42:20.949Z,96.00
2018-05-29T02:43:20.975Z,104.00
2018-05-29T02:44:20.999Z,116.00
2018-05-29T02:45:21.031Z,128.00
2018-05-29T02:46:21.051Z,140.00
2018-05-29T02:47:21.070Z,152.00
2018-05-29T02:48:21.092Z,168.00
2018-05-29T02:49:21.117Z,180.00
2018-05-29T02:50:21.145Z,200.00
2018-05-29T02:51:21.169Z,216.00
2018-05-29T02:52:21.195Z,236.00
2018-05-29T02:53:21.224Z,252.00
2018-05-29T02:54:21.232Z,272.00
2018-05-29T02:55:21.259Z,292.00
2018-05-29T02:56:21.285Z,312.00
2018-05-29T02:57:21.311Z,332.00
2018-05-29T02:58:21.337Z,356.00
2018-05-29T02:59:21.380Z,380.00
2018-05-29T03:00:21.393Z,404.00
2018-05-29T03:01:21.406Z,432.00
2018-05-29T03:02:21.429Z,456.00
2018-05-29T03:03:21.455Z,484.00
2018-05-29T03:04:21.481Z,512.00
2018-05-29T03:05:21.507Z,540.00
2018-05-29T03:06:21.533Z,572.00
2018-05-29T03:07:21.548Z,600.00
2018-05-29T03:08:21.572Z,632.00
2018-05-29T03:09:21.602Z,664.00
2018-05-29T03:10:21.623Z,696.00
2018-05-29T03:11:21.650Z,728.00
2018-05-29T03:12:21.675Z,764.00
2018-05-29T03:13:21.704Z,800.00
2018-05-29T03:14:21.715Z,832.00
2018-05-29T03:15:21.741Z,868.00
2018-05-29T03:16:21.770Z,904.00
2018-05-29T03:17:21.794Z,940.00
2018-05-29T03:18:21.820Z,976.00
2018-05-29T03:19:21.845Z,1016.00
2018-05-29T03:20:21.873Z,1056.00
2018-05-29T03:21:21.896Z,1096.00
2018-05-29T03:22:21.911Z,1132.00
2018-05-29T03:23:21.938Z,1176.00
2018-05-29T03:24:21.962Z,1216.00
2018-05-29T03:25:21.987Z,1256.00
2018-05-29T03:26:22.014Z,1300.00
2018-05-29T03:27:22.029Z,1336.00
2018-05-29T03:28:22.054Z,1380.00
2018-05-29T03:29:22.081Z,1420.00
2018-05-29T03:30:22.105Z,1464.00
2018-05-29T03:31:22.131Z,1504.00
2018-05-29T03:32:22.158Z,1544.00
2018-05-29T03:33:22.185Z,1588.00
2018-05-29T03:34:22.241Z,1632.00
2018-05-29T03:35:22.222Z,1672.00
2018-05-29T03:36:22.249Z,1716.00
2018-05-29T03:37:22.286Z,1760.00
2018-05-29T03:38:22.300Z,1800.00
2018-05-29T03:39:22.325Z,1840.00
2018-05-29T03:40:22.364Z,1880.00
2018-05-29T03:41:22.366Z,1920.00
2018-05-29T03:42:22.392Z,1960.00
2018-05-29T03:43:22.418Z,2000.00
2018-05-29T03:44:22.444Z,2036.00
2018-05-29T03:45:22.470Z,2076.00
2018-05-29T03:46:22.496Z,2112.00
2018-05-29T03:47:22.509Z,2148.00
2018-05-29T03:48:22.534Z,2184.00
2018-05-29T03:49:22.560Z,2220.00
2018-05-29T03:50:22.587Z,2252.00
2018-05-29T03:51:22.633Z,2292.00
2018-05-29T03:52:22.638Z,2324.00
2018-05-29T03:53:22.664Z,2360.00
2018-05-29T03:54:22.679Z,2392.00
2018-05-29T03:55:22.704Z,2424.00
2018-05-29T03:56:22.729Z,2456.00
2018-05-29T03:57:22.760Z,2492.00
2018-05-29T03:58:22.782Z,2520.00
2018-05-29T03:59:22.808Z,2552.00
2018-05-29T04:00:22.835Z,2584.00
2018-05-29T04:01:22.848Z,2616.00
2018-05-29T04:02:22.873Z,2648.00
2018-05-29T04:03:22.898Z,2680.00
2018-05-29T04:04:22.929Z,2708.00
2018-05-29T04:05:22.963Z,2744.00
2018-05-29T04:06:22.976Z,2776.00
2018-05-29T04:07:23.003Z,2816.00
2018-05-29T04:08:23.017Z,2848.00
2018-05-29T04:09:23.067Z,2880.00
2018-05-29T04:10:23.069Z,2920.00
2018-05-29T04:11:23.095Z,2952.00
2018-05-29T04:12:23.120Z,2988.00
2018-05-29T04:13:23.149Z,3024.00
2018-05-29T04:14:23.172Z,3060.00
2018-05-29T04:15:23.185Z,3092.00
2018-05-29T04:16:23.211Z,3128.00
2018-05-29T04:17:23.237Z,3164.00
2018-05-29T04:18:23.263Z,3196.00
2018-05-29T04:19:23.289Z,3236.00
2018-05-29T04:20:23.314Z,3268.00
2018-05-29T04:21:23.353Z,3308.00
2018-05-29T04:22:23.355Z,3340.00
2018-05-29T04:23:23.381Z,3372.00
2018-05-29T04:24:23.407Z,3404.00
2018-05-29T04:25:23.437Z,3440.00
2018-05-29T04:26:23.458Z,3476.00
2018-05-29T04:27:23.485Z,3508.00
2018-05-29T04:28:23.511Z,3536.00
2018-05-29T04:29:23.524Z,3572.00
2018-05-29T04:30:23.563Z,3608.00
2018-05-29T04:31:23.574Z,3640.00
2018-05-29T04:32:23.601Z,3676.00
2018-05-29T04:33:23.641Z,3704.00
2018-05-29T04:34:23.653Z,3740.00
2018-05-29T04:35:23.679Z,3764.00
2018-05-29T04:36:23.705Z,3796.00
2018-05-29T04:37:23.720Z,3824.00
2018-05-29T04:38:23.745Z,3856.00
2018-05-29T04:39:23.771Z,3888.00
2018-05-29T04:40:23.797Z,3920.00
2018-05-29T04:41:23.830Z,3952.00
2018-05-29T04:42:23.849Z,3984.00
2018-05-29T04:43:23.874Z,4020.00
2018-05-29T04:44:23.888Z,4044.00
2018-05-29T04:45:23.913Z,4064.00
2018-05-29T04:46:23.939Z,4088.00
2018-05-29T04:47:23.965Z,4104.00
2018-05-29T04:48:23.996Z,4136.00
2018-05-29T04:49:24.029Z,4168.00
2018-05-29T04:50:24.043Z,4196.00
2018-05-29T04:51:24.070Z,4224.00
2018-05-29T04:52:24.084Z,4260.00
2018-05-29T04:53:24.109Z,4284.00
2018-05-29T04:54:24.138Z,4328.00
2018-05-29T04:55:24.161Z,4360.00
2018-05-29T04:56:24.187Z,4396.00
2018-05-29T04:57:24.216Z,4440.00
2018-05-29T04:58:24.239Z,4472.00
2018-05-29T04:59:24.265Z,4516.00
2018-05-29T05:00:24.278Z,4528.00
2018-05-29T05:01:24.303Z,4580.00
2018-05-29T05:02:24.332Z,4600.00
2018-05-29T05:03:24.356Z,4620.00
2018-05-29T05:04:24.380Z,4652.00
2018-05-29T05:05:24.408Z,4676.00
2018-05-29T05:06:24.434Z,4712.00
2018-05-29T05:07:24.460Z,4752.00
2018-05-29T05:08:24.485Z,4784.00
2018-05-29T05:09:24.499Z,4804.00
2018-05-29T05:10:24.525Z,4836.00
2018-05-29T05:11:24.552Z,4976.00
2018-05-29T05:12:24.576Z,5280.00
2018-05-29T05:13:24.614Z,5292.00
2018-05-29T05:14:24.629Z,5020.00
2018-05-29T05:15:24.655Z,5848.00
2018-05-29T05:16:24.681Z,7452.00
2018-05-29T05:17:24.706Z,8776.00
2018-05-29T05:18:24.720Z,10028.00
2018-05-29T05:19:24.745Z,12472.00
2018-05-29T05:20:24.785Z,12632.00
2018-05-29T05:21:24.797Z,9092.00
2018-05-29T05:22:24.823Z,11956.00
2018-05-29T05:23:24.850Z,18656.00
2018-05-29T05:24:24.875Z,26752.00
2018-05-29T05:25:24.901Z,21792.00
2018-05-29T05:26:24.927Z,18080.00
2018-05-29T05:27:24.953Z,15164.00
2018-05-29T05:28:24.979Z,12640.00
2018-05-29T05:29:25.005Z,11012.00
2018-05-29T05:30:25.031Z,10736.00
2018-05-29T05:31:25.057Z,10068.00
2018-05-29T05:32:25.084Z,6956.00
2018-05-29T05:33:25.111Z,5484.00
2018-05-29T05:34:25.136Z,5296.00
2018-05-29T05:35:25.208Z,5324.00
2018-05-29T05:36:25.186Z,5344.00
2018-05-29T05:37:25.212Z,5384.00
2018-05-29T05:38:25.239Z,5492.00
2018-05-29T05:39:25.266Z,7496.00
2018-05-29T05:40:25.290Z,8404.00
2018-05-29T05:41:25.316Z,7648.00
2018-05-29T05:42:25.344Z,6660.00
2018-05-29T05:43:25.369Z,6528.00
2018-05-29T05:44:25.397Z,6492.00
2018-05-29T05:45:25.421Z,7744.00
2018-05-29T05:46:25.435Z,7512.00
2018-05-29T05:47:25.459Z,5908.00
2018-05-29T05:48:25.487Z,6576.00
2018-05-29T05:49:25.514Z,8960.00
2018-05-29T05:50:25.538Z,9048.00
2018-05-29T05:51:25.564Z,7016.00
2018-05-29T05:52:25.589Z,6076.00
2018-05-29T05:53:25.615Z,5960.00
2018-05-29T05:54:25.641Z,5812.00
2018-05-29T05:55:25.671Z,6232.00
2018-05-29T05:56:25.696Z,9168.00
2018-05-29T05:57:25.719Z,13428.00
2018-05-29T05:58:25.748Z,10988.00
2018-05-29T05:59:25.771Z,7472.00
2018-05-29T06:00:25.797Z,6760.00
2018-05-29T06:01:25.823Z,7392.00
2018-05-29T06:02:25.849Z,7620.00
2018-05-29T06:03:25.874Z,7928.00
2018-05-29T06:04:25.901Z,6816.00
2018-05-29T06:05:25.927Z,6700.00
2018-05-29T06:06:25.953Z,6552.00
2018-05-29T06:07:25.979Z,10508.00
2018-05-29T06:08:26.004Z,18592.00
2018-05-29T06:09:26.031Z,20896.00
2018-05-29T06:10:26.058Z,21312.00
2018-05-29T06:11:26.082Z,20608.00
2018-05-29T06:12:26.120Z,21184.00
2018-05-29T06:13:26.147Z,24000.00
2018-05-29T06:14:26.173Z,20512.00
2018-05-29T06:15:26.197Z,23776.00
2018-05-29T06:16:26.299Z,22880.00
2018-05-29T06:17:26.262Z,19264.00
2018-05-29T06:18:26.276Z,22752.00
2018-05-29T06:19:26.301Z,41024.00
2018-05-29T06:20:26.340Z,50176.00
2018-05-29T06:21:26.354Z,38528.00
2018-05-29T06:22:26.379Z,17728.00
2018-05-29T06:23:26.447Z,22112.00
2018-05-29T06:24:26.465Z,23008.00
2018-05-29T06:25:26.470Z,25280.00
2018-05-29T06:26:26.500Z,23584.00
2018-05-29T06:27:26.522Z,20384.00
2018-05-29T06:28:26.548Z,18304.00
2018-05-29T06:29:26.587Z,19520.00
2018-05-29T06:30:26.613Z,18272.00
2018-05-29T06:31:26.651Z,23872.00
2018-05-29T06:32:26.664Z,26592.00
2018-05-29T06:33:26.689Z,25856.00
2018-05-29T06:34:26.720Z,26784.00
2018-05-29T06:35:26.754Z,36608.00
2018-05-29T06:36:26.780Z,37344.00
2018-05-29T06:37:26.806Z,37408.00
2018-05-29T06:38:26.835Z,36800.00
2018-05-29T06:39:26.914Z,35680.00
2018-05-29T06:40:26.897Z,34944.00
2018-05-29T06:41:26.922Z,38816.00
2018-05-29T06:42:26.961Z,43520.00
2018-05-29T06:43:26.987Z,44736.00
2018-05-29T06:44:27.013Z,45632.00
2018-05-29T06:45:27.074Z,48928.00
2018-05-29T06:46:27.078Z,51328.00
2018-05-29T06:47:27.116Z,50944.00
2018-05-29T06:48:27.141Z,52448.00
2018-05-29T06:49:27.183Z,54432.00
2018-05-29T06:50:27.205Z,52576.00
2018-05-29T06:51:27.244Z,52096.00
2018-05-29T06:52:27.271Z,53664.00
2018-05-29T06:53:27.308Z,53600.00
2018-05-29T06:54:27.335Z,53248.00
2018-05-29T06:55:27.375Z,54720.00
2018-05-29T06:56:27.399Z,59456.00
2018-05-29T06:57:27.437Z,64320.00
2018-05-29T06:58:27.477Z,65536.00
2018-05-29T06:59:27.505Z,62016.00
2018-05-29T07:00:27.553Z,62528.00
2018-05-29T07:01:27.580Z,64096.00
2018-05-29T07:02:27.606Z,61440.00
2018-05-29T07:03:27.644Z,62720.00
2018-05-29T07:04:27.682Z,63712.00
2018-05-29T07:05:27.709Z,63328.00
2018-05-29T07:06:27.746Z,64352.00
2018-05-29T07:07:27.785Z,65216.00
2018-05-29T07:08:27.824Z,65696.00
2018-05-29T07:09:27.849Z,64480.00
2018-05-29T07:10:27.890Z,64160.00
2018-05-29T07:11:27.925Z,64704.00
2018-05-29T07:12:27.964Z,66112.00
2018-05-29T07:13:27.991Z,69280.00
2018-05-29T07:14:28.102Z,69728.00
2018-05-29T07:15:28.067Z,70336.00
2018-05-29T07:16:28.117Z,71680.00
2018-05-29T07:17:28.136Z,71264.00
2018-05-29T07:18:28.169Z,66880.00
2018-05-29T07:19:28.208Z,63392.00
2018-05-29T07:20:28.249Z,61664.00
2018-05-29T07:21:28.285Z,61344.00
2018-05-29T07:22:28.324Z,58944.00
2018-05-29T07:23:28.365Z,59008.00
2018-05-29T07:24:28.388Z,60416.00
2018-05-29T07:25:28.426Z,62944.00
2018-05-29T07:26:28.465Z,63840.00
2018-05-29T07:27:28.504Z,62208.00
2018-05-29T07:28:28.543Z,64704.00
2018-05-29T07:29:28.581Z,62816.00
2018-05-29T07:30:28.634Z,57728.00
2018-05-29T07:31:28.657Z,56192.00
2018-05-29T07:32:28.694Z,57760.00
2018-05-29T07:33:28.735Z,59776.00
2018-05-29T07:34:28.772Z,64928.00
2018-05-29T07:35:28.812Z,69696.00
2018-05-29T07:36:28.851Z,71776.00
2018-05-29T07:37:28.888Z,73024.00
2018-05-29T07:38:28.927Z,75424.00
2018-05-29T07:39:28.981Z,76384.00
2018-05-29T07:40:29.003Z,75360.00
2018-05-29T07:41:29.042Z,74560.00
2018-05-29T07:42:29.092Z,75104.00
2018-05-29T07:43:29.162Z,74720.00
2018-05-29T07:44:29.161Z,73632.00
2018-05-29T07:45:29.196Z,71328.00
2018-05-29T07:46:29.234Z,71040.00
2018-05-29T07:47:29.272Z,73024.00
2018-05-29T07:48:29.311Z,72608.00
2018-05-29T07:49:29.350Z,75264.00
2018-05-29T07:50:29.388Z,78240.00
2018-05-29T07:51:29.427Z,77664.00
2018-05-29T07:52:29.463Z,78752.00
2018-05-29T07:53:29.502Z,78944.00
2018-05-29T07:54:29.547Z,79392.00
2018-05-29T07:55:29.580Z,81216.00
2018-05-29T07:56:29.618Z,80480.00
2018-05-29T07:57:29.656Z,79200.00
2018-05-29T07:58:29.695Z,78816.00
2018-05-29T07:59:29.734Z,79104.00
2018-05-29T08:00:29.786Z,79392.00
2018-05-29T08:01:29.821Z,76832.00
2018-05-29T08:02:29.861Z,76352.00
2018-05-29T08:03:29.904Z,78944.00
2018-05-29T08:04:29.939Z,78496.00
2018-05-29T08:05:29.976Z,76256.00
2018-05-29T08:06:30.086Z,76256.00
2018-05-29T08:07:30.054Z,76736.00
2018-05-29T08:08:30.096Z,74144.00
2018-05-29T08:09:30.143Z,67552.00
2018-05-29T08:10:30.204Z,69984.00
2018-05-29T08:11:30.221Z,76192.00
2018-05-29T08:12:30.270Z,76128.00
2018-05-29T08:13:30.296Z,75136.00
2018-05-29T08:14:30.334Z,74656.00
2018-05-29T08:15:30.374Z,75392.00
2018-05-29T08:16:30.425Z,78528.00
2018-05-29T08:17:30.464Z,80288.00
2018-05-29T08:18:30.560Z,81792.00
2018-05-29T08:19:30.539Z,83072.00
2018-05-29T08:20:30.580Z,84160.00
2018-05-29T08:21:30.634Z,84000.00
2018-05-29T08:22:30.668Z,81600.00
2018-05-29T08:23:30.707Z,78016.00
2018-05-29T08:24:30.748Z,77536.00
2018-05-29T08:25:30.783Z,79488.00
2018-05-29T08:26:30.834Z,77184.00
2018-05-29T08:27:30.873Z,74752.00
2018-05-29T08:28:30.911Z,77856.00
2018-05-29T08:29:30.948Z,78528.00
2018-05-29T08:30:30.988Z,75648.00
2018-05-29T08:31:31.039Z,71616.00
2018-05-29T08:32:31.077Z,70240.00
2018-05-29T08:33:31.115Z,71104.00
2018-05-29T08:34:31.154Z,71680.00
2018-05-29T08:35:31.204Z,73792.00
2018-05-29T08:36:31.243Z,75776.00
2018-05-29T08:37:31.281Z,77440.00
2018-05-29T08:38:31.322Z,80832.00
2018-05-29T08:39:31.409Z,81664.00
2018-05-29T08:40:31.409Z,81312.00
2018-05-29T08:41:31.448Z,81088.00
2018-05-29T08:42:31.485Z,81216.00
2018-05-29T08:43:31.537Z,81952.00
2018-05-29T08:44:31.576Z,84960.00
2018-05-29T08:45:31.613Z,87072.00
2018-05-29T08:46:31.652Z,85888.00
2018-05-29T08:47:31.704Z,87232.00
2018-05-29T08:48:31.741Z,90272.00
2018-05-29T08:49:31.781Z,92736.00
2018-05-29T08:50:31.834Z,90336.00
2018-05-29T08:51:31.869Z,90080.00
2018-05-29T08:52:31.908Z,86400.00
2018-05-29T08:53:31.959Z,82720.00
2018-05-29T08:54:31.997Z,80192.00
2018-05-29T08:55:32.035Z,83424.00
2018-05-29T08:56:32.074Z,87552.00
2018-05-29T08:57:32.126Z,89216.00
2018-05-29T08:58:32.164Z,87616.00
2018-05-29T08:59:32.201Z,84352.00
2018-05-29T09:00:32.252Z,82144.00
2018-05-29T09:01:32.304Z,82560.00
2018-05-29T09:02:32.330Z,85760.00
2018-05-29T09:03:32.381Z,93248.00
2018-05-29T09:04:32.420Z,97312.00
2018-05-29T09:05:32.466Z,97536.00
2018-05-29T09:06:32.508Z,98400.00
2018-05-29T09:07:32.547Z,97984.00
2018-05-29T09:08:32.589Z,95200.00
2018-05-29T09:09:32.637Z,95328.00
2018-05-29T09:10:32.675Z,95616.00
2018-05-29T09:11:32.733Z,96128.00
2018-05-29T09:12:32.766Z,94656.00
2018-05-29T09:13:32.803Z,89664.00
2018-05-29T09:14:32.855Z,86208.00
2018-05-29T09:15:32.892Z,89472.00
2018-05-29T09:16:32.934Z,92160.00
2018-05-29T09:17:32.982Z,90976.00
2018-05-29T09:18:33.021Z,92768.00
2018-05-29T09:19:33.076Z,93952.00
2018-05-29T09:20:33.109Z,94176.00
2018-05-29T09:21:33.148Z,97152.00
2018-05-29T09:22:33.198Z,97696.00
2018-05-29T09:23:33.238Z,97088.00
2018-05-29T09:24:33.277Z,97568.00
2018-05-29T09:25:33.327Z,98848.00
2018-05-29T09:26:33.366Z,97856.00
2018-05-29T09:27:33.417Z,95072.00
2018-05-29T09:28:33.455Z,93952.00
2018-05-29T09:29:33.552Z,95680.00
2018-05-29T09:30:33.546Z,95904.00
2018-05-29T09:31:33.584Z,93472.00
2018-05-29T09:32:33.633Z,91328.00
2018-05-29T09:33:33.673Z,92320.00
2018-05-29T09:34:33.723Z,93824.00
2018-05-29T09:35:33.816Z,95584.00
2018-05-29T09:36:33.812Z,98400.00
2018-05-29T09:37:33.909Z,100416.00
2018-05-29T09:38:33.903Z,100896.00
2018-05-29T09:39:33.944Z,98240.00
2018-05-29T09:40:33.979Z,97760.00
2018-05-29T09:41:34.085Z,99424.00
2018-05-29T09:42:34.067Z,99552.00
2018-05-29T09:43:34.122Z,99392.00
2018-05-29T09:44:34.163Z,101280.00
2018-05-29T09:45:34.208Z,100032.00
2018-05-29T09:46:34.247Z,96768.00
2018-05-29T09:47:34.297Z,96608.00
2018-05-29T09:48:34.338Z,97408.00
2018-05-29T09:49:34.387Z,97280.00
2018-05-29T09:50:34.437Z,100160.00
2018-05-29T09:51:34.464Z,100480.00
2018-05-29T09:52:34.515Z,100320.00
2018-05-29T09:53:34.553Z,101184.00
2018-05-29T09:54:34.652Z,101920.00
2018-05-29T09:55:34.642Z,101344.00
2018-05-29T09:56:34.694Z,100288.00
2018-05-29T09:57:34.731Z,97120.00
2018-05-29T09:58:34.782Z,92864.00
2018-05-29T09:59:34.821Z,90560.00
2018-05-29T10:00:34.874Z,90144.00
2018-05-29T10:01:34.909Z,91104.00
2018-05-29T10:02:34.960Z,91072.00
2018-05-29T10:03:35.000Z,89920.00
2018-05-29T10:04:35.051Z,91520.00
2018-05-29T10:05:35.090Z,92672.00
2018-05-29T10:06:35.140Z,93824.00
2018-05-29T10:07:35.178Z,94112.00
2018-05-29T10:08:35.230Z,94016.00
2018-05-29T10:09:35.269Z,94656.00
2018-05-29T10:10:35.318Z,95872.00
2018-05-29T10:11:35.358Z,93760.00
2018-05-29T10:12:35.408Z,90112.00
2018-05-29T10:13:35.464Z,88224.00
2018-05-29T10:14:35.498Z,90400.00
2018-05-29T10:15:35.548Z,91968.00
2018-05-29T10:16:35.586Z,95584.00
2018-05-29T10:17:35.638Z,95936.00
2018-05-29T10:18:35.676Z,93440.00
2018-05-29T10:19:35.729Z,92736.00
2018-05-29T10:20:35.769Z,94976.00
2018-05-29T10:21:35.818Z,96576.00
2018-05-29T10:22:35.868Z,94624.00
2018-05-29T10:23:35.907Z,90912.00
2018-05-29T10:24:35.991Z,89472.00
2018-05-29T10:25:35.995Z,90176.00
2018-05-29T10:26:36.047Z,93312.00
2018-05-29T10:27:36.085Z,95904.00
2018-05-29T10:28:36.136Z,98112.00
2018-05-29T10:29:36.175Z,98560.00
2018-05-29T10:30:36.226Z,97536.00
2018-05-29T10:31:36.276Z,91072.00
2018-05-29T10:32:36.314Z,86080.00
2018-05-29T10:33:36.366Z,86592.00
2018-05-29T10:34:36.405Z,92864.00
2018-05-29T10:35:36.456Z,99840.00
2018-05-29T10:36:36.505Z,103072.00
2018-05-29T10:37:36.544Z,105984.00
2018-05-29T10:38:36.596Z,104352.00
2018-05-29T10:39:36.633Z,101504.00
2018-05-29T10:40:36.684Z,101920.00
2018-05-29T10:41:36.738Z,103584.00
2018-05-29T10:42:36.772Z,102400.00
2018-05-29T10:43:36.824Z,100192.00
2018-05-29T10:44:36.875Z,92832.00
2018-05-29T10:45:36.916Z,86912.00
2018-05-29T10:46:36.965Z,88512.00
2018-05-29T10:47:37.004Z,94240.00
2018-05-29T10:48:37.054Z,99584.00
2018-05-29T10:49:37.105Z,99712.00
2018-05-29T10:50:37.144Z,100192.00
2018-05-29T10:51:37.195Z,97664.00
2018-05-29T10:52:37.314Z,92192.00
2018-05-29T10:53:37.288Z,86560.00
2018-05-29T10:54:37.340Z,87200.00
2018-05-29T10:55:37.385Z,90752.00
2018-05-29T10:56:37.424Z,95296.00
2018-05-29T10:57:37.476Z,97856.00
2018-05-29T10:58:37.528Z,96064.00
2018-05-29T10:59:37.565Z,94912.00
2018-05-29T11:00:37.614Z,94464.00
2018-05-29T11:01:37.668Z,97248.00
2018-05-29T11:02:37.708Z,98016.00
2018-05-29T11:03:37.758Z,98272.00
2018-05-29T11:04:37.807Z,97952.00
2018-05-29T11:05:37.845Z,96864.00
2018-05-29T11:06:37.896Z,95104.00
2018-05-29T11:07:37.947Z,94048.00
2018-05-29T11:08:37.986Z,89888.00
2018-05-29T11:09:38.036Z,89152.00
2018-05-29T11:10:38.088Z,90976.00
2018-05-29T11:11:38.126Z,93920.00
2018-05-29T11:12:38.193Z,94560.00
2018-05-29T11:13:38.228Z,94784.00
2018-05-29T11:14:38.267Z,94816.00
2018-05-29T11:15:38.317Z,95072.00
2018-05-29T11:16:38.369Z,94944.00
2018-05-29T11:17:38.405Z,94464.00
2018-05-29T11:18:38.458Z,94400.00
2018-05-29T11:19:38.520Z,93888.00
2018-05-29T11:20:38.546Z,93120.00
2018-05-29T11:21:38.598Z,92736.00
2018-05-29T11:22:38.656Z,91392.00
2018-05-29T11:23:38.687Z,87968.00
2018-05-29T11:24:38.738Z,87008.00
2018-05-29T11:25:38.789Z,88096.00
2018-05-29T11:26:38.840Z,89408.00
2018-05-29T11:27:38.878Z,92000.00
2018-05-29T11:28:38.930Z,93920.00
2018-05-29T11:29:38.982Z,95776.00
2018-05-29T11:30:39.018Z,96640.00
2018-05-29T11:31:39.069Z,97248.00
2018-05-29T11:32:39.120Z,96960.00
2018-05-29T11:33:39.171Z,95872.00
2018-05-29T11:34:39.210Z,94624.00
2018-05-29T11:35:39.266Z,95456.00
2018-05-29T11:36:39.299Z,96608.00
2018-05-29T11:37:39.349Z,94400.00
2018-05-29T11:38:39.404Z,88192.00
2018-05-29T11:39:39.439Z,87488.00
2018-05-29T11:40:39.494Z,88704.00
2018-05-29T11:41:39.541Z,88928.00
2018-05-29T11:42:39.580Z,87392.00
2018-05-29T11:43:39.630Z,87200.00
2018-05-29T11:44:39.682Z,83616.00
2018-05-29T11:45:39.732Z,80672.00
2018-05-29T11:46:39.771Z,76000.00
2018-05-29T11:47:39.822Z,73984.00
2018-05-29T11:48:39.965Z,74784.00
2018-05-29T11:49:39.912Z,77376.00
2018-05-29T11:50:39.978Z,80160.00
2018-05-29T11:51:40.014Z,82304.00
2018-05-29T11:52:40.064Z,80736.00
2018-05-29T11:53:40.103Z,80000.00
2018-05-29T11:54:40.155Z,82080.00
2018-05-29T11:55:40.204Z,85664.00
2018-05-29T11:56:40.245Z,89408.00
2018-05-29T11:57:40.295Z,91744.00
2018-05-29T11:58:40.346Z,92704.00
2018-05-29T11:59:40.399Z,91392.00
2018-05-29T12:00:40.461Z,92352.00
2018-05-29T12:01:40.508Z,93440.00
2018-05-29T12:02:40.536Z,92928.00
2018-05-29T12:03:40.587Z,95104.00
2018-05-29T12:04:40.626Z,95744.00
2018-05-29T12:05:40.676Z,92992.00
2018-05-29T12:06:40.728Z,92256.00
2018-05-29T12:07:40.786Z,91872.00
2018-05-29T12:08:40.818Z,95968.00
2018-05-29T12:09:40.877Z,94496.00